Time;durP1;ratioP1;P1;durP2;ratioP2;P2;SDS_P1;SDS_P2;PMS_P1;PMS_P2;Temp;Humidity;BMP_temperature;BMP_pressure;BME280_temperature;BME280_humidity;BME280_pressure;Samples;Min_cycle;Max_cycle;Signal;HPM_P1;HPM_P2
2023/10/07 00:00:54;;;;;;;2.95;2.10;;;15.20;99.90;;;;;;4996834;28;20195;-66
2023/10/07 00:03:20;;;;;;;3.35;2.22;;;15.20;99.90;;;;;;4996695;28;20194;-66
2023/10/07 00:05:47;;;;;;;4.93;2.40;;;15.20;99.90;;;;;;4995890;28;20207;-66
2023/10/07 00:08:19;;;;;;;4.40;2.45;;;15.20;99.90;;;;;;4996338;28;20356;-66
2023/10/07 00:10:49;;;;;;;4.50;2.35;;;15.20;99.90;;;;;;4996477;28;20172;-66
2023/10/07 00:13:20;;;;;;;4.03;2.28;;;15.20;99.90;;;;;;4989144;28;20291;-66
2023/10/07 00:15:51;;;;;;;3.33;2.13;;;15.20;99.90;;;;;;4996018;28;20190;-66
2023/10/07 00:18:23;;;;;;;3.67;2.40;;;15.10;99.90;;;;;;4992084;28;20183;-66
2023/10/07 00:20:55;;;;;;;3.60;2.20;;;15.10;99.90;;;;;;4991576;28;20230;-66
2023/10/07 00:23:23;;;;;;;5.93;2.35;;;15.10;99.90;;;;;;4987024;28;20194;-66
2023/10/07 00:25:56;;;;;;;3.20;2.40;;;15.10;99.90;;;;;;4996044;28;20195;-66
2023/10/07 00:28:28;;;;;;;3.95;2.60;;;15.10;99.90;;;;;;4978722;28;20184;-66
2023/10/07 00:30:55;;;;;;;4.97;2.35;;;15.00;99.90;;;;;;4995101;28;20183;-66
2023/10/07 00:33:22;;;;;;;4.03;2.55;;;15.00;99.90;;;;;;4995098;28;20196;-66
2023/10/07 00:36:04;;;;;;;3.10;2.40;;;14.90;99.90;;;;;;4995499;28;20245;-66
2023/10/07 00:38:37;;;;;;;5.43;2.63;;;14.80;99.90;;;;;;4976327;28;20203;-66
2023/10/07 00:41:11;;;;;;;3.85;2.28;;;14.80;99.90;;;;;;5008292;28;20218;-66
2023/10/07 00:43:37;;;;;;;4.18;2.22;;;14.70;99.90;;;;;;4991537;28;20195;-66
2023/10/07 00:46:10;;;;;;;3.30;2.05;;;14.70;99.90;;;;;;4983033;28;20203;-66
2023/10/07 00:48:47;;;;;;;3.22;2.13;;;14.60;99.90;;;;;;4988628;28;20180;-66
2023/10/07 00:51:24;;;;;;;3.95;2.20;;;14.60;99.90;;;;;;4987956;28;20195;-67
2023/10/07 00:54:01;;;;;;;3.35;2.22;;;14.50;99.90;;;;;;4995877;28;20242;-67
2023/10/07 00:56:34;;;;;;;3.80;2.15;;;14.50;99.90;;;;;;4995717;28;20218;-67
2023/10/07 00:59:07;;;;;;;4.72;2.40;;;14.50;99.90;;;;;;4995591;28;20207;-66
2023/10/07 01:01:36;;;;;;;5.18;2.65;;;14.40;99.90;;;;;;4995741;28;20258;-67
2023/10/07 01:04:06;;;;;;;4.75;2.42;;;14.40;99.90;;;;;;4995075;28;20179;-66
2023/10/07 01:06:38;;;;;;;4.25;2.80;;;14.40;99.90;;;;;;4995571;28;20187;-67
2023/10/07 01:09:14;;;;;;;3.45;2.33;;;14.40;99.90;;;;;;4992483;28;20263;-67
2023/10/07 01:11:41;;;;;;;3.38;2.33;;;14.40;99.90;;;;;;4996276;28;20226;-67
2023/10/07 01:14:10;;;;;;;4.07;2.30;;;14.30;99.90;;;;;;4995401;28;20179;-66
2023/10/07 01:16:44;;;;;;;3.88;2.22;;;14.30;99.90;;;;;;4977623;28;20263;-66
2023/10/07 01:21:54;;;;;;;4.30;2.35;;;14.30;99.90;;;;;;4998716;28;20344;-66
2023/10/07 01:27:07;;;;;;;3.92;2.40;;;14.30;99.90;;;;;;4998384;28;20207;-66
2023/10/07 01:29:34;;;;;;;4.45;2.58;;;14.30;99.90;;;;;;4998856;28;20210;-67
2023/10/07 01:32:03;;;;;;;4.38;2.40;;;14.30;99.90;;;;;;4997247;28;20211;-66
2023/10/07 01:34:35;;;;;;;4.25;2.15;;;14.20;99.90;;;;;;4998627;28;20179;-66
2023/10/07 01:37:03;;;;;;;4.75;2.20;;;14.20;99.90;;;;;;4998771;28;20217;-66
2023/10/07 01:39:31;;;;;;;5.43;2.40;;;14.20;99.90;;;;;;4999011;28;20210;-66
2023/10/07 01:42:01;;;;;;;4.45;2.50;;;14.20;99.90;;;;;;4995339;28;20211;-67
2023/10/07 01:44:30;;;;;;;4.43;2.10;;;14.10;99.90;;;;;;5013747;28;20175;-66
2023/10/07 01:46:58;;;;;;;3.38;2.15;;;14.10;99.90;;;;;;4998506;28;20226;-66
2023/10/07 01:49:24;;;;;;;4.55;2.42;;;14.10;99.90;;;;;;4998814;28;20246;-67
2023/10/07 01:51:54;;;;;;;4.30;2.60;;;14.10;99.90;;;;;;4997700;28;20226;-67
2023/10/07 01:54:28;;;;;;;3.78;2.42;;;14.10;99.90;;;;;;4998826;28;20246;-66
2023/10/07 01:56:54;;;;;;;3.10;2.13;;;14.10;99.90;;;;;;4998987;28;20183;-67
2023/10/07 01:59:21;;;;;;;4.82;2.28;;;14.10;99.90;;;;;;4985665;28;20283;-68
2023/10/07 02:02:06;;;;;;;3.72;2.72;;;14.10;99.90;;;;;;4998175;28;20214;-66
2023/10/07 02:04:36;;;;;;;4.57;2.08;;;14.10;99.90;;;;;;4998237;28;20262;-67
2023/10/07 02:07:04;;;;;;;3.80;2.33;;;14.10;99.90;;;;;;5006307;28;20171;-66
2023/10/07 02:09:41;;;;;;;3.50;2.35;;;14.10;99.90;;;;;;4998423;28;20203;-66
2023/10/07 02:12:18;;;;;;;3.75;2.60;;;14.10;99.90;;;;;;4985725;28;20227;-66
2023/10/07 02:14:43;;;;;;;4.32;2.30;;;14.20;99.90;;;;;;4979036;28;20218;-67
2023/10/07 02:17:11;;;;;;;4.70;2.35;;;14.20;99.90;;;;;;4983941;28;20449;-67
2023/10/07 02:19:40;;;;;;;3.83;2.50;;;14.30;99.90;;;;;;4989233;28;20257;-67
2023/10/07 02:22:21;;;;;;;4.03;2.40;;;14.30;99.90;;;;;;4981791;28;20200;-67
2023/10/07 02:24:55;;;;;;;3.00;2.10;;;14.40;99.90;;;;;;4993609;28;20207;-66
2023/10/07 02:27:25;;;;;;;3.90;2.15;;;14.50;99.90;;;;;;4993692;28;20206;-67
2023/10/07 02:29:57;;;;;;;5.03;2.50;;;14.50;99.90;;;;;;4997453;28;20203;-67
2023/10/07 02:32:22;;;;;;;4.80;2.40;;;14.50;99.90;;;;;;4988145;28;20200;-67
2023/10/07 02:34:51;;;;;;;4.32;2.58;;;14.60;99.90;;;;;;4987298;28;20183;-68
2023/10/07 02:37:30;;;;;;;3.95;2.30;;;14.60;99.90;;;;;;4990878;28;20188;-67
2023/10/07 02:42:46;;;;;;;4.90;2.40;;;14.60;99.90;;;;;;4998273;28;20190;-65
2023/10/07 02:47:54;;;;;;;3.10;2.10;;;14.60;99.90;;;;;;4983922;28;20183;-67
2023/10/07 02:50:25;;;;;;;4.20;2.38;;;14.60;99.90;;;;;;5001260;28;20183;-67
2023/10/07 02:52:51;;;;;;;3.25;1.92;;;14.50;99.90;;;;;;4997657;28;20266;-67
2023/10/07 02:57:45;;;;;;;4.20;2.33;;;14.60;99.90;;;;;;4998150;28;20471;-67
2023/10/07 03:00:17;;;;;;;4.43;2.35;;;14.60;99.90;;;;;;4978752;28;20187;-66
2023/10/07 03:02:49;;;;;;;3.78;2.20;;;14.50;99.90;;;;;;4979496;28;20246;-67
2023/10/07 03:05:26;;;;;;;3.55;1.98;;;14.50;99.90;;;;;;4998048;28;20164;-67
2023/10/07 03:08:02;;;;;;;4.05;2.40;;;14.40;99.90;;;;;;4997830;28;20167;-67
2023/10/07 03:10:44;;;;;;;3.33;2.25;;;14.50;99.90;;;;;;4988855;28;20199;-67
2023/10/07 03:13:15;;;;;;;3.58;2.30;;;14.50;99.90;;;;;;4977937;28;20237;-67
2023/10/07 03:15:44;;;;;;;4.85;2.58;;;14.50;99.90;;;;;;4978327;28;20256;-67
2023/10/07 03:18:22;;;;;;;4.65;2.22;;;14.50;99.90;;;;;;4985700;28;20203;-66
2023/10/07 03:21:00;;;;;;;3.45;2.20;;;14.40;99.90;;;;;;4981081;28;20287;-67
2023/10/07 03:23:26;;;;;;;3.00;2.25;;;14.50;99.90;;;;;;4984359;28;20250;-67
2023/10/07 03:28:25;;;;;;;3.88;2.35;;;14.60;99.90;;;;;;4997558;28;20168;-67
2023/10/07 03:30:55;;;;;;;3.83;2.10;;;14.60;99.90;;;;;;4989014;28;20207;-67
2023/10/07 03:38:26;;;;;;;3.42;1.95;;;14.50;99.90;;;;;;4996277;28;20862;-66
2023/10/07 03:40:55;;;;;;;3.08;2.30;;;14.60;99.90;;;;;;4994486;28;20214;-67
2023/10/07 03:43:27;;;;;;;3.22;2.10;;;14.60;99.90;;;;;;4993694;28;20343;-66
2023/10/07 03:45:54;;;;;;;3.40;2.10;;;14.60;99.90;;;;;;4989209;28;20184;-66
2023/10/07 03:48:30;;;;;;;3.53;2.20;;;14.60;99.90;;;;;;4996824;28;20170;-67
2023/10/07 03:51:05;;;;;;;5.32;2.60;;;14.60;99.90;;;;;;4993744;28;20241;-67
2023/10/07 03:53:44;;;;;;;4.03;2.00;;;14.60;99.90;;;;;;5004006;28;20277;-67
2023/10/07 03:56:10;;;;;;;3.30;1.92;;;14.60;99.90;;;;;;4994053;28;20199;-67
2023/10/07 03:58:37;;;;;;;4.78;2.15;;;14.50;99.90;;;;;;4995695;28;20211;-67
2023/10/07 04:01:17;;;;;;;3.33;2.28;;;14.50;99.90;;;;;;4988837;28;20214;-67
2023/10/07 04:03:50;;;;;;;2.85;1.98;;;14.50;99.90;;;;;;4987250;28;20542;-67
2023/10/07 04:06:20;;;;;;;3.65;2.25;;;14.50;99.90;;;;;;4994559;28;20182;-66
2023/10/07 04:08:56;;;;;;;3.40;2.20;;;14.50;99.90;;;;;;4995807;28;20190;-66
2023/10/07 04:11:28;;;;;;;3.38;1.77;;;14.50;99.90;;;;;;4996385;28;20174;-66
2023/10/07 04:13:57;;;;;;;2.50;1.83;;;14.50;99.90;;;;;;4986129;28;20190;-67
2023/10/07 04:16:24;;;;;;;4.32;2.20;;;14.50;99.90;;;;;;4983556;28;20243;-67
2023/10/07 04:19:29;;;;;;;3.45;2.20;;;14.60;99.90;;;;;;4986753;28;20180;-67
2023/10/07 04:21:54;;;;;;;3.08;2.20;;;14.50;99.90;;;;;;4990263;28;20238;-68
2023/10/07 04:24:28;;;;;;;2.95;2.05;;;14.50;99.90;;;;;;4991150;28;20188;-68
2023/10/07 04:26:55;;;;;;;5.13;2.33;;;14.60;99.90;;;;;;4978555;28;20180;-67
2023/10/07 04:29:26;;;;;;;4.15;2.40;;;14.60;99.90;;;;;;4998255;28;20199;-68
2023/10/07 04:31:53;;;;;;;3.40;2.05;;;14.60;99.90;;;;;;4993390;28;20180;-68
2023/10/07 04:34:22;;;;;;;4.05;2.08;;;14.60;99.90;;;;;;4976478;28;20176;-68
2023/10/07 04:37:13;;;;;;;2.83;1.83;;;14.60;99.90;;;;;;4980047;28;20265;-68
2023/10/07 04:40:42;;;;;;;2.85;2.00;;;14.60;99.90;;;;;;4991296;28;20278;-68
2023/10/07 04:42:37;;;;;;;2.97;2.05;;;14.60;99.90;;;;;;4983363;28;20215;-68
2023/10/07 04:45:21;;;;;;;2.83;2.10;;;14.60;99.90;;;;;;4999437;28;20178;-68
2023/10/07 04:48:23;;;;;;;3.55;2.30;;;14.70;99.90;;;;;;4995166;28;20203;-68
2023/10/07 04:51:03;;;;;;;4.25;2.30;;;14.60;99.90;;;;;;4975997;28;20199;-68
2023/10/07 04:53:39;;;;;;;3.75;2.20;;;14.70;99.90;;;;;;4978837;28;21468;-68
2023/10/07 04:56:06;;;;;;;2.95;1.92;;;14.70;99.90;;;;;;4995745;28;20199;-68
2023/10/07 04:58:39;;;;;;;4.22;2.33;;;14.70;99.90;;;;;;4987818;28;20175;-68
2023/10/07 05:01:56;;;;;;;4.90;2.35;;;14.70;99.90;;;;;;4995409;28;20272;-68
2023/10/07 05:04:04;;;;;;;3.25;2.20;;;14.80;99.90;;;;;;4989078;28;20189;-68
2023/10/07 05:06:34;;;;;;;3.40;2.20;;;14.80;99.90;;;;;;4995699;28;20328;-68
2023/10/07 05:09:09;;;;;;;3.72;2.10;;;14.90;99.90;;;;;;4995425;28;20186;-67
2023/10/07 05:11:40;;;;;;;2.97;2.22;;;14.90;99.90;;;;;;4995200;28;20178;-68
2023/10/07 05:14:10;;;;;;;3.92;2.35;;;14.90;99.90;;;;;;4992212;28;20171;-67
2023/10/07 05:16:39;;;;;;;3.25;2.33;;;15.00;99.90;;;;;;4991608;28;20187;-68
2023/10/07 05:19:19;;;;;;;3.42;2.22;;;15.00;99.90;;;;;;4994960;28;20359;-68
2023/10/07 05:24:38;;;;;;;3.97;2.30;;;15.10;99.90;;;;;;4995243;28;20202;-67
2023/10/07 05:27:05;;;;;;;3.75;2.40;;;15.20;99.90;;;;;;4994698;28;20175;-69
2023/10/07 05:29:31;;;;;;;4.93;2.40;;;15.10;99.90;;;;;;4988588;28;20179;-67
2023/10/07 05:32:00;;;;;;;4.90;2.40;;;15.20;99.90;;;;;;4994561;28;20210;-67
2023/10/07 05:34:29;;;;;;;4.07;2.40;;;15.20;99.90;;;;;;5008626;28;20185;-68
2023/10/07 05:37:04;;;;;;;3.03;2.10;;;15.20;99.90;;;;;;4994693;28;20195;-66
2023/10/07 05:39:32;;;;;;;3.35;2.40;;;15.30;99.90;;;;;;4994679;28;20210;-68
2023/10/07 05:41:58;;;;;;;6.53;3.35;;;15.20;99.90;;;;;;5005282;28;20238;-67
2023/10/07 05:44:28;;;;;;;3.85;2.47;;;15.30;99.90;;;;;;4991654;28;20200;-67
2023/10/07 05:46:54;;;;;;;5.45;2.35;;;15.30;99.90;;;;;;5006453;28;20175;-67
2023/10/07 05:49:19;;;;;;;3.58;2.30;;;15.40;99.90;;;;;;4993730;28;20883;-67
2023/10/07 05:51:46;;;;;;;3.40;2.20;;;15.40;99.90;;;;;;4995133;28;20203;-68
2023/10/07 05:54:12;;;;;;;4.05;2.30;;;15.40;99.90;;;;;;4994969;28;20267;-67
2023/10/07 05:56:37;;;;;;;3.17;2.10;;;15.50;99.90;;;;;;4995388;28;20227;-67
2023/10/07 05:59:06;;;;;;;3.78;2.22;;;15.50;99.90;;;;;;4993917;28;20251;-67
2023/10/07 06:01:34;;;;;;;3.33;1.98;;;15.60;99.90;;;;;;4994305;28;20220;-68
2023/10/07 06:04:00;;;;;;;4.97;2.70;;;15.60;99.90;;;;;;5014573;28;20214;-69
2023/10/07 06:06:30;;;;;;;3.65;2.40;;;15.60;99.90;;;;;;5017972;28;20179;-68
2023/10/07 06:09:00;;;;;;;4.75;2.80;;;15.60;99.90;;;;;;5000908;28;20203;-70
2023/10/07 06:11:34;;;;;;;4.18;2.30;;;15.70;99.90;;;;;;4995397;28;20275;-68
2023/10/07 06:14:04;;;;;;;3.28;2.42;;;15.60;99.90;;;;;;4995546;28;20167;-68
2023/10/07 06:16:32;;;;;;;2.95;1.98;;;15.60;99.90;;;;;;5004300;28;20230;-67
2023/10/07 06:18:58;;;;;;;4.15;2.30;;;15.70;99.90;;;;;;4995281;28;20208;-68
2023/10/07 06:21:31;;;;;;;3.28;2.30;;;15.70;99.90;;;;;;5009952;28;20234;-68
2023/10/07 06:24:04;;;;;;;3.58;2.00;;;15.70;99.90;;;;;;4998704;28;20199;-68
2023/10/07 06:26:30;;;;;;;4.75;2.47;;;15.80;99.90;;;;;;4995255;28;20172;-67
2023/10/07 06:28:56;;;;;;;3.25;1.92;;;15.80;99.90;;;;;;4995210;28;20227;-67
2023/10/07 06:31:22;;;;;;;3.92;2.30;;;15.80;99.90;;;;;;4999478;28;20179;-67
2023/10/07 06:34:12;;;;;;;4.68;2.17;;;15.80;99.90;;;;;;4998912;28;20171;-67
2023/10/07 06:36:40;;;;;;;2.75;1.90;;;15.80;99.90;;;;;;4984137;28;20262;-68
2023/10/07 06:39:07;;;;;;;3.45;2.00;;;15.80;99.90;;;;;;5014111;28;20195;-67
2023/10/07 06:41:34;;;;;;;3.15;2.20;;;15.80;99.90;;;;;;4997665;28;20225;-68
2023/10/07 06:44:03;;;;;;;3.00;2.55;;;15.90;99.90;;;;;;4994195;28;20183;-68
2023/10/07 06:47:16;;;;;;;3.90;2.38;;;15.90;99.90;;;;;;4994552;28;20172;-68
2023/10/07 06:49:25;;;;;;;3.13;2.38;;;16.00;99.90;;;;;;4978231;28;20188;-68
2023/10/07 06:51:54;;;;;;;3.92;2.38;;;16.00;99.90;;;;;;4980794;28;20179;-68
2023/10/07 06:54:23;;;;;;;4.05;2.70;;;16.00;99.90;;;;;;4997932;28;20203;-68
2023/10/07 06:56:55;;;;;;;4.32;2.45;;;16.10;99.90;;;;;;5000839;28;20187;-68
2023/10/07 06:59:27;;;;;;;4.85;2.30;;;16.10;99.90;;;;;;4997610;28;20183;-68
2023/10/07 07:01:56;;;;;;;4.82;2.35;;;16.20;99.90;;;;;;4995250;28;20243;-68
2023/10/07 07:04:27;;;;;;;3.35;2.50;;;16.20;99.90;;;;;;4997609;28;20194;-67
2023/10/07 07:07:10;;;;;;;4.60;2.88;;;16.30;99.90;;;;;;5006907;28;20199;-68
2023/10/07 07:09:50;;;;;;;4.35;2.75;;;16.40;99.90;;;;;;4997103;28;20190;-67
2023/10/07 07:12:18;;;;;;;4.68;2.78;;;16.40;99.90;;;;;;4978276;28;20276;-68
2023/10/07 07:17:44;;;;;;;4.80;2.30;;;16.50;99.90;;;;;;4988384;28;20177;-68
2023/10/07 07:22:45;;;;;;;3.95;2.40;;;16.60;99.90;;;;;;4997446;28;20171;-67
2023/10/07 07:25:35;;;;;;;4.80;2.97;;;16.70;99.90;;;;;;5011923;28;20257;-68
2023/10/07 07:28:01;;;;;;;4.25;2.83;;;16.70;99.90;;;;;;4996906;28;20186;-67
2023/10/07 07:30:35;;;;;;;5.13;2.75;;;16.80;99.90;;;;;;4997497;28;20175;-69
2023/10/07 07:33:08;;;;;;;5.05;2.97;;;16.80;99.90;;;;;;4997098;28;20189;-69
2023/10/07 07:35:41;;;;;;;3.50;2.35;;;16.90;99.90;;;;;;4997138;28;20237;-68
2023/10/07 07:41:01;;;;;;;3.05;2.22;;;17.00;99.90;;;;;;4978267;28;20184;-66
2023/10/07 07:43:30;;;;;;;4.88;2.50;;;17.00;99.90;;;;;;4993066;28;20175;-67
2023/10/07 07:46:29;;;;;;;3.85;2.50;;;17.10;99.90;;;;;;4990812;28;20183;-68
2023/10/07 07:49:08;;;;;;;3.45;2.20;;;17.10;99.90;;;;;;4978090;28;20203;-66
2023/10/07 07:51:37;;;;;;;4.03;2.50;;;17.20;99.90;;;;;;4979232;28;20168;-72
2023/10/07 07:54:07;;;;;;;3.92;2.58;;;17.30;99.90;;;;;;4993006;28;20283;-73
2023/10/07 07:56:36;;;;;;;2.78;2.10;;;17.40;99.90;;;;;;4993303;28;20200;-75
2023/10/07 07:59:13;;;;;;;4.90;2.60;;;17.40;99.90;;;;;;4993346;28;20176;-74
2023/10/07 08:01:45;;;;;;;3.92;2.35;;;17.50;99.90;;;;;;4993150;28;20226;-70
2023/10/07 08:04:37;;;;;;;3.05;2.47;;;17.50;99.90;;;;;;4981726;28;20167;-72
2023/10/07 08:07:06;;;;;;;4.75;2.60;;;17.60;99.90;;;;;;4997974;28;20168;-66
2023/10/07 08:09:36;;;;;;;3.63;2.42;;;17.60;99.90;;;;;;4992187;28;20223;-64
2023/10/07 08:12:09;;;;;;;4.18;2.42;;;17.70;99.90;;;;;;5012004;28;20266;-66
2023/10/07 08:14:36;;;;;;;4.28;2.70;;;17.70;99.90;;;;;;4990673;28;20207;-66
2023/10/07 08:17:08;;;;;;;4.38;2.42;;;17.80;99.90;;;;;;4992985;28;20183;-64
2023/10/07 08:19:38;;;;;;;4.03;2.40;;;17.80;99.90;;;;;;5009257;28;20245;-65
2023/10/07 08:22:16;;;;;;;3.90;2.67;;;17.90;99.90;;;;;;4989967;28;20207;-65
2023/10/07 08:24:44;;;;;;;4.03;2.50;;;17.90;99.90;;;;;;4990855;28;20198;-64
2023/10/07 08:27:43;;;;;;;4.03;2.33;;;17.90;99.90;;;;;;4995283;28;20210;-64
2023/10/07 08:29:56;;;;;;;3.78;2.50;;;18.00;99.90;;;;;;4995442;28;20175;-64
2023/10/07 08:32:34;;;;;;;3.63;2.33;;;18.00;99.90;;;;;;4995620;28;20243;-66
2023/10/07 08:35:03;;;;;;;3.90;2.45;;;18.10;99.90;;;;;;4988904;28;20172;-66
2023/10/07 08:37:32;;;;;;;4.63;2.60;;;18.10;99.90;;;;;;4995471;28;20297;-65
2023/10/07 08:40:13;;;;;;;3.20;2.25;;;18.20;99.90;;;;;;4993123;28;20206;-65
2023/10/07 08:42:48;;;;;;;4.45;2.30;;;18.20;99.90;;;;;;4978849;28;20180;-65
2023/10/07 08:45:15;;;;;;;3.63;2.25;;;18.30;99.90;;;;;;4997397;28;20194;-66
2023/10/07 08:47:50;;;;;;;3.15;2.10;;;18.40;99.90;;;;;;4988258;28;20180;-65
2023/10/07 08:50:22;;;;;;;3.05;2.10;;;18.40;99.90;;;;;;4989555;28;20207;-65
2023/10/07 08:53:07;;;;;;;2.80;1.90;;;18.50;99.90;;;;;;4995376;28;20203;-64
2023/10/07 08:55:36;;;;;;;2.90;2.15;;;18.50;99.90;;;;;;4990858;28;20190;-65
2023/10/07 08:58:04;;;;;;;3.17;2.03;;;18.60;99.90;;;;;;4983359;28;20179;-63
2023/10/07 09:00:33;;;;;;;2.45;1.83;;;18.60;99.90;;;;;;4994654;28;20213;-65
2023/10/07 09:02:59;;;;;;;3.60;1.83;;;18.70;99.90;;;;;;4989617;28;20202;-65
2023/10/07 09:05:29;;;;;;;3.33;1.95;;;18.70;99.90;;;;;;4995215;28;20214;-63
2023/10/07 09:07:57;;;;;;;4.03;1.80;;;18.80;99.90;;;;;;4995268;28;20183;-69
2023/10/07 09:10:28;;;;;;;2.33;1.90;;;18.80;99.90;;;;;;4994910;28;20176;-69
2023/10/07 09:13:03;;;;;;;2.42;1.70;;;18.90;99.90;;;;;;4995092;28;20273;-69
2023/10/07 09:15:35;;;;;;;3.33;1.83;;;19.00;99.90;;;;;;4994786;28;20245;-68
2023/10/07 09:18:04;;;;;;;1.95;1.73;;;19.10;99.90;;;;;;4993894;28;20289;-68
2023/10/07 09:20:43;;;;;;;3.10;2.00;;;19.10;99.90;;;;;;4994389;28;20176;-68
2023/10/07 09:23:19;;;;;;;2.92;1.83;;;19.20;99.90;;;;;;4989143;28;20238;-69
2023/10/07 09:25:52;;;;;;;2.38;1.80;;;19.30;99.90;;;;;;4982270;28;20179;-68
2023/10/07 09:28:31;;;;;;;2.10;1.42;;;19.30;99.90;;;;;;4982640;28;20242;-69
2023/10/07 09:31:05;;;;;;;2.75;1.70;;;19.40;99.90;;;;;;4976274;28;20204;-69
2023/10/07 09:33:35;;;;;;;3.33;1.90;;;19.60;99.90;;;;;;4985061;28;20180;-68
2023/10/07 09:39:04;;;;;;;4.13;1.90;;;19.80;99.90;;;;;;5075592;23;20535;-68
2023/10/07 09:41:32;;;;;;;2.50;1.85;;;20.00;99.90;;;;;;5034919;28;20185;-69
2023/10/07 09:44:00;;;;;;;2.92;1.95;;;20.40;99.90;;;;;;5026881;28;20198;-71
2023/10/07 09:46:29;;;;;;;3.42;2.13;;;20.80;99.90;;;;;;5037539;28;20209;-70
2023/10/07 09:48:58;;;;;;;3.60;2.08;;;21.30;99.90;;;;;;5037288;28;20198;-69
2023/10/07 09:51:34;;;;;;;3.25;1.80;;;21.80;99.90;;;;;;5032167;28;20175;-70
2023/10/07 09:54:05;;;;;;;4.72;2.10;;;22.10;99.90;;;;;;5053021;28;20173;-71
2023/10/07 09:56:39;;;;;;;3.10;1.98;;;22.50;99.90;;;;;;5037382;28;20255;-67
2023/10/07 09:59:25;;;;;;;3.00;2.08;;;22.70;99.90;;;;;;5035913;28;20333;-67
2023/10/07 10:02:25;;;;;;;3.58;2.00;;;22.90;99.90;;;;;;5028742;28;20237;-67
2023/10/07 10:05:26;;;;;;;3.90;2.13;;;23.10;99.90;;;;;;5037078;28;20174;-68
2023/10/07 10:08:29;;;;;;;2.85;1.90;;;23.30;99.90;;;;;;5033365;28;20191;-67
2023/10/07 10:10:58;;;;;;;4.55;2.53;;;23.40;99.90;;;;;;5024999;28;20212;-67
2023/10/07 10:16:14;;;;;;;3.67;2.13;;;23.50;99.90;;;;;;5025566;28;20213;-67
2023/10/07 10:19:11;;;;;;;3.45;1.92;;;23.60;99.90;;;;;;5037505;28;20216;-67
2023/10/07 10:21:39;;;;;;;3.58;2.20;;;23.90;99.90;;;;;;5037233;28;20182;-67
2023/10/07 10:24:13;;;;;;;3.15;2.10;;;24.10;99.90;;;;;;5037104;28;20201;-67
2023/10/07 10:26:40;;;;;;;3.13;1.77;;;24.30;99.90;;;;;;5036918;28;20186;-68
2023/10/07 10:29:20;;;;;;;2.25;1.70;;;24.50;99.90;;;;;;5037131;28;20178;-68
2023/10/07 10:31:58;;;;;;;3.70;1.90;;;24.60;99.90;;;;;;5028962;28;20174;-68
2023/10/07 10:34:26;;;;;;;3.15;2.00;;;24.60;99.90;;;;;;5029275;28;20170;-69
2023/10/07 10:36:55;;;;;;;3.22;1.75;;;24.60;99.90;;;;;;5036430;28;20208;-67
2023/10/07 10:39:31;;;;;;;2.92;2.10;;;24.50;99.90;;;;;;5037674;28;20189;-69
2023/10/07 10:42:14;;;;;;;3.10;2.08;;;24.50;99.90;;;;;;5035241;28;20213;-68
2023/10/07 10:44:46;;;;;;;2.92;2.00;;;24.50;99.90;;;;;;5034406;28;20199;-68
2023/10/07 10:47:21;;;;;;;2.92;2.00;;;24.50;99.90;;;;;;5034955;28;20236;-67
2023/10/07 10:49:49;;;;;;;2.97;1.80;;;24.60;99.90;;;;;;5031777;28;20170;-68
2023/10/07 10:52:15;;;;;;;4.28;2.80;;;24.70;99.90;;;;;;5036928;28;20181;-67
2023/10/07 10:54:42;;;;;;;2.83;1.88;;;24.70;99.90;;;;;;5035920;28;20182;-67
2023/10/07 10:57:13;;;;;;;2.35;1.90;;;24.60;99.90;;;;;;5035912;28;20209;-67
2023/10/07 10:59:43;;;;;;;3.53;1.98;;;24.70;99.90;;;;;;5025941;28;20319;-68
2023/10/07 11:02:11;;;;;;;3.60;1.90;;;24.70;99.90;;;;;;5035959;28;20255;-67
2023/10/07 11:04:37;;;;;;;3.38;1.90;;;24.70;99.90;;;;;;5035013;28;20220;-68
2023/10/07 11:07:07;;;;;;;2.75;1.90;;;24.70;99.90;;;;;;5035624;28;20178;-68
2023/10/07 11:09:39;;;;;;;4.05;1.98;;;24.70;99.90;;;;;;5032893;28;20185;-67
2023/10/07 11:12:16;;;;;;;2.63;1.98;;;24.70;99.90;;;;;;5035995;28;20220;-67
2023/10/07 11:14:43;;;;;;;3.25;1.88;;;24.70;99.90;;;;;;5036417;28;20598;-68
2023/10/07 11:17:14;;;;;;;4.07;2.00;;;24.70;99.90;;;;;;5036361;28;20202;-68
2023/10/07 11:19:44;;;;;;;3.22;2.05;;;24.70;99.90;;;;;;5037327;28;20166;-67
2023/10/07 11:22:14;;;;;;;3.90;2.40;;;24.80;99.90;;;;;;5032240;28;20194;-68
2023/10/07 11:24:42;;;;;;;2.75;1.95;;;24.90;99.90;;;;;;5016319;28;20432;-68
2023/10/07 11:27:12;;;;;;;2.78;1.92;;;25.00;99.90;;;;;;5033394;28;20174;-68
2023/10/07 11:29:38;;;;;;;3.22;2.08;;;25.20;99.90;;;;;;5036155;28;20170;-68
2023/10/07 11:32:07;;;;;;;2.83;1.80;;;25.30;99.90;;;;;;5036600;28;20271;-68
2023/10/07 11:34:38;;;;;;;3.15;1.85;;;25.40;99.90;;;;;;5035919;28;20178;-68
2023/10/07 11:37:13;;;;;;;2.85;1.73;;;25.40;99.90;;;;;;5035890;28;20387;-68
2023/10/07 11:39:44;;;;;;;3.33;1.85;;;25.40;99.90;;;;;;5035686;28;20204;-67
2023/10/07 11:42:24;;;;;;;2.53;1.77;;;25.40;99.90;;;;;;5033563;28;20199;-68
2023/10/07 11:44:55;;;;;;;1.83;1.58;;;25.50;99.90;;;;;;5032227;28;20259;-68
2023/10/07 11:47:23;;;;;;;2.67;1.75;;;25.60;99.90;;;;;;5030988;28;20460;-67
2023/10/07 11:49:48;;;;;;;2.45;1.40;;;25.70;99.90;;;;;;5035558;28;20236;-67
2023/10/07 11:52:19;;;;;;;2.35;1.55;;;25.70;99.90;;;;;;5025553;28;20173;-67
2023/10/07 11:54:45;;;;;;;2.63;2.08;;;25.70;99.90;;;;;;5034074;28;20194;-67
2023/10/07 11:57:12;;;;;;;2.20;1.70;;;25.80;99.90;;;;;;5034491;28;20277;-68
2023/10/07 11:59:41;;;;;;;1.88;1.45;;;25.80;99.90;;;;;;5017220;28;20190;-68
2023/10/07 12:02:11;;;;;;;2.42;1.60;;;25.90;99.90;;;;;;5027497;28;20252;-68
2023/10/07 12:04:48;;;;;;;3.08;1.80;;;25.90;99.90;;;;;;5015664;28;20274;-67
2023/10/07 12:07:17;;;;;;;2.42;1.60;;;26.00;99.90;;;;;;5015795;28;20170;-68
2023/10/07 12:09:47;;;;;;;2.53;1.77;;;26.00;99.90;;;;;;5021159;28;20174;-68
2023/10/07 12:12:13;;;;;;;1.83;1.25;;;26.00;99.90;;;;;;5052013;28;20201;-67
2023/10/07 12:14:42;;;;;;;2.53;1.60;;;26.10;99.90;;;;;;5034276;28;20201;-69
2023/10/07 12:17:07;;;;;;;2.10;1.30;;;26.20;99.90;;;;;;5033129;28;20185;-68
2023/10/07 12:19:34;;;;;;;2.50;1.67;;;26.30;99.90;;;;;;5035337;28;20228;-68
2023/10/07 12:22:06;;;;;;;3.00;1.50;;;26.50;99.90;;;;;;5035333;28;20211;-69
2023/10/07 12:24:40;;;;;;;2.45;1.55;;;26.70;99.90;;;;;;5035268;28;20174;-69
2023/10/07 12:27:10;;;;;;;2.33;1.50;;;26.90;99.90;;;;;;5046336;28;20174;-72
2023/10/07 12:29:36;;;;;;;2.20;1.38;;;27.10;99.90;;;;;;5035226;28;20189;-73
2023/10/07 12:32:02;;;;;;;1.60;1.10;;;27.20;99.90;;;;;;5033410;28;20236;-72
2023/10/07 12:34:30;;;;;;;2.58;1.42;;;27.20;99.90;;;;;;5031952;28;20178;-70
2023/10/07 12:36:58;;;;;;;3.13;2.00;;;27.30;99.90;;;;;;5034058;28;20182;-71
2023/10/07 12:39:23;;;;;;;1.92;1.45;;;27.40;99.90;;;;;;5031671;28;20264;-72
2023/10/07 12:41:49;;;;;;;1.65;1.00;;;27.40;99.90;;;;;;5019186;28;20182;-71
2023/10/07 12:44:17;;;;;;;1.92;1.33;;;27.50;99.90;;;;;;5031706;28;20174;-70
2023/10/07 12:46:48;;;;;;;2.55;1.30;;;27.50;99.90;;;;;;5026520;28;20182;-71
2023/10/07 12:49:16;;;;;;;2.35;1.30;;;27.70;99.90;;;;;;5015444;28;20167;-71
2023/10/07 12:51:48;;;;;;;2.28;1.17;;;27.70;99.90;;;;;;5024122;28;20201;-70
2023/10/07 12:54:13;;;;;;;1.50;1.10;;;27.80;99.90;;;;;;5035063;28;20168;-71
2023/10/07 12:56:45;;;;;;;1.70;1.25;;;27.90;99.90;;;;;;5035038;28;20177;-71
2023/10/07 12:59:23;;;;;;;2.13;1.20;;;28.00;99.90;;;;;;5035171;28;20162;-71
2023/10/07 13:01:59;;;;;;;3.60;2.30;;;28.20;99.90;;;;;;5034815;28;20268;-71
2023/10/07 13:04:34;;;;;;;3.15;2.08;;;28.20;99.90;;;;;;5034439;28;20201;-70
2023/10/07 13:07:14;;;;;;;2.78;1.88;;;28.30;99.90;;;;;;5034496;28;20169;-71
2023/10/07 13:09:42;;;;;;;2.20;1.42;;;28.30;99.90;;;;;;5034511;28;20158;-71
2023/10/07 13:12:15;;;;;;;6.88;4.35;;;28.30;99.90;;;;;;5035621;28;20185;-73
2023/10/07 13:14:46;;;;;;;3.38;2.17;;;28.30;99.90;;;;;;5038617;28;20175;-72
2023/10/07 13:17:13;;;;;;;3.13;1.70;;;28.40;99.90;;;;;;5039274;28;20201;-72
2023/10/07 13:19:43;;;;;;;1.85;1.35;;;28.40;99.90;;;;;;5038237;28;20174;-73
2023/10/07 13:22:11;;;;;;;2.67;1.40;;;28.40;99.90;;;;;;5039114;28;20221;-72
2023/10/07 13:24:39;;;;;;;1.65;1.00;;;28.50;99.90;;;;;;5038486;28;20259;-79
2023/10/07 13:27:04;;;;;;;1.23;1.10;;;28.50;99.90;;;;;;5037274;28;20260;-72
2023/10/07 13:29:34;;;;;;;1.67;0.93;;;28.50;99.90;;;;;;5034483;28;20262;-71
2023/10/07 13:32:05;;;;;;;2.92;1.30;;;28.50;99.90;;;;;;5037053;28;20192;-72
2023/10/07 13:34:38;;;;;;;1.67;1.08;;;28.50;99.90;;;;;;5030076;28;20183;-71
2023/10/07 13:37:06;;;;;;;1.85;1.20;;;28.50;99.90;;;;;;5035587;28;20480;-72
2023/10/07 13:39:34;;;;;;;2.15;1.05;;;28.50;99.90;;;;;;5035404;28;20264;-72
2023/10/07 13:42:04;;;;;;;2.00;1.10;;;28.60;99.90;;;;;;5036025;28;20248;-71
2023/10/07 13:44:32;;;;;;;1.80;1.13;;;28.60;99.90;;;;;;5038859;28;20214;-71
2023/10/07 13:47:00;;;;;;;1.38;0.90;;;28.60;99.90;;;;;;5037626;28;20174;-71
2023/10/07 13:49:25;;;;;;;1.65;1.00;;;28.60;99.90;;;;;;5038755;28;20288;-71